sensor_id;sensor_type;location;lat;lon;timestamp;P1;durP1;ratioP1;P2;durP2;ratioP2
41881;SDS011;27562;47.524;12.404;2024-03-08T00:00:42;21.27;;;10.50;;
41881;SDS011;27562;47.524;12.404;2024-03-08T00:03:08;21.95;;;10.93;;
41881;SDS011;27562;47.524;12.404;2024-03-08T00:05:35;22.27;;;9.65;;
41881;SDS011;27562;47.524;12.404;2024-03-08T00:08:03;25.35;;;11.32;;
41881;SDS011;27562;47.524;12.404;2024-03-08T00:10:30;23.95;;;11.52;;
41881;SDS011;27562;47.524;12.404;2024-03-08T00:12:55;24.35;;;12.52;;
41881;SDS011;27562;47.524;12.404;2024-03-08T00:15:22;24.42;;;11.07;;
41881;SDS011;27562;47.524;12.404;2024-03-08T00:17:48;23.08;;;11.30;;
41881;SDS011;27562;47.524;12.404;2024-03-08T00:20:14;21.48;;;10.05;;
41881;SDS011;27562;47.524;12.404;2024-03-08T00:22:45;21.88;;;11.27;;
41881;SDS011;27562;47.524;12.404;2024-03-08T00:25:11;23.38;;;10.43;;
41881;SDS011;27562;47.524;12.404;2024-03-08T00:27:37;25.90;;;11.50;;
41881;SDS011;27562;47.524;12.404;2024-03-08T00:30:03;24.42;;;11.15;;
41881;SDS011;27562;47.524;12.404;2024-03-08T00:32:30;23.13;;;11.18;;
41881;SDS011;27562;47.524;12.404;2024-03-08T00:34:56;22.30;;;10.93;;
41881;SDS011;27562;47.524;12.404;2024-03-08T00:37:22;24.70;;;11.02;;
41881;SDS011;27562;47.524;12.404;2024-03-08T00:39:48;21.38;;;10.65;;
41881;SDS011;27562;47.524;12.404;2024-03-08T00:42:15;21.48;;;11.52;;
41881;SDS011;27562;47.524;12.404;2024-03-08T00:44:41;21.30;;;10.02;;
41881;SDS011;27562;47.524;12.404;2024-03-08T00:47:07;20.45;;;10.77;;
41881;SDS011;27562;47.524;12.404;2024-03-08T00:49:33;21.33;;;10.05;;
41881;SDS011;27562;47.524;12.404;2024-03-08T00:51:58;25.02;;;11.05;;
41881;SDS011;27562;47.524;12.404;2024-03-08T00:54:24;21.63;;;10.95;;
41881;SDS011;27562;47.524;12.404;2024-03-08T00:56:50;24.33;;;10.98;;
41881;SDS011;27562;47.524;12.404;2024-03-08T00:59:15;23.20;;;11.15;;
41881;SDS011;27562;47.524;12.404;2024-03-08T01:01:41;25.42;;;12.07;;
41881;SDS011;27562;47.524;12.404;2024-03-08T01:04:07;20.80;;;10.88;;
41881;SDS011;27562;47.524;12.404;2024-03-08T01:06:33;23.17;;;11.10;;
41881;SDS011;27562;47.524;12.404;2024-03-08T01:08:59;24.92;;;11.32;;
41881;SDS011;27562;47.524;12.404;2024-03-08T01:11:25;23.30;;;10.65;;
41881;SDS011;27562;47.524;12.404;2024-03-08T01:13:53;21.95;;;10.13;;
41881;SDS011;27562;47.524;12.404;2024-03-08T01:16:19;21.42;;;10.02;;
41881;SDS011;27562;47.524;12.404;2024-03-08T01:18:47;21.98;;;10.70;;
41881;SDS011;27562;47.524;12.404;2024-03-08T01:21:13;22.17;;;10.73;;
41881;SDS011;27562;47.524;12.404;2024-03-08T01:23:39;21.27;;;10.48;;
41881;SDS011;27562;47.524;12.404;2024-03-08T01:26:04;21.77;;;10.55;;
41881;SDS011;27562;47.524;12.404;2024-03-08T01:28:31;20.98;;;10.23;;
41881;SDS011;27562;47.524;12.404;2024-03-08T01:30:58;22.15;;;10.27;;
41881;SDS011;27562;47.524;12.404;2024-03-08T01:33:25;21.77;;;10.98;;
41881;SDS011;27562;47.524;12.404;2024-03-08T01:35:52;23.83;;;10.80;;
41881;SDS011;27562;47.524;12.404;2024-03-08T01:38:20;20.70;;;10.55;;
41881;SDS011;27562;47.524;12.404;2024-03-08T01:40:46;26.02;;;10.82;;
41881;SDS011;27562;47.524;12.404;2024-03-08T01:43:22;23.05;;;11.52;;
41881;SDS011;27562;47.524;12.404;2024-03-08T01:45:53;25.25;;;11.50;;
41881;SDS011;27562;47.524;12.404;2024-03-08T01:48:27;25.58;;;12.00;;
41881;SDS011;27562;47.524;12.404;2024-03-08T01:50:54;30.55;;;14.32;;
41881;SDS011;27562;47.524;12.404;2024-03-08T01:53:21;28.33;;;14.32;;
41881;SDS011;27562;47.524;12.404;2024-03-08T01:55:48;27.50;;;13.70;;
41881;SDS011;27562;47.524;12.404;2024-03-08T01:58:14;24.65;;;12.15;;
41881;SDS011;27562;47.524;12.404;2024-03-08T02:00:41;24.85;;;12.30;;
41881;SDS011;27562;47.524;12.404;2024-03-08T02:03:09;26.70;;;12.70;;
41881;SDS011;27562;47.524;12.404;2024-03-08T02:05:35;27.70;;;12.13;;
41881;SDS011;27562;47.524;12.404;2024-03-08T02:08:03;26.65;;;12.52;;
41881;SDS011;27562;47.524;12.404;2024-03-08T02:10:32;22.17;;;11.07;;
41881;SDS011;27562;47.524;12.404;2024-03-08T02:12:58;24.30;;;11.85;;
41881;SDS011;27562;47.524;12.404;2024-03-08T02:15:25;24.33;;;11.57;;
41881;SDS011;27562;47.524;12.404;2024-03-08T02:17:51;24.52;;;11.20;;
41881;SDS011;27562;47.524;12.404;2024-03-08T02:20:18;24.02;;;11.02;;
41881;SDS011;27562;47.524;12.404;2024-03-08T02:22:44;22.70;;;10.45;;
41881;SDS011;27562;47.524;12.404;2024-03-08T02:25:10;25.88;;;11.45;;
41881;SDS011;27562;47.524;12.404;2024-03-08T02:27:36;25.48;;;11.73;;
41881;SDS011;27562;47.524;12.404;2024-03-08T02:30:02;23.75;;;10.55;;
41881;SDS011;27562;47.524;12.404;2024-03-08T02:32:30;23.55;;;10.63;;
41881;SDS011;27562;47.524;12.404;2024-03-08T02:34:57;25.55;;;11.73;;
41881;SDS011;27562;47.524;12.404;2024-03-08T02:37:24;21.58;;;11.20;;
41881;SDS011;27562;47.524;12.404;2024-03-08T02:39:50;24.77;;;11.32;;
41881;SDS011;27562;47.524;12.404;2024-03-08T02:42:16;26.75;;;10.95;;
41881;SDS011;27562;47.524;12.404;2024-03-08T02:44:43;23.17;;;11.10;;
41881;SDS011;27562;47.524;12.404;2024-03-08T02:47:12;24.55;;;11.85;;
41881;SDS011;27562;47.524;12.404;2024-03-08T02:49:37;27.25;;;12.13;;
41881;SDS011;27562;47.524;12.404;2024-03-08T02:52:03;30.67;;;15.15;;
41881;SDS011;27562;47.524;12.404;2024-03-08T02:54:30;27.48;;;12.77;;
41881;SDS011;27562;47.524;12.404;2024-03-08T02:56:56;28.58;;;12.95;;
41881;SDS011;27562;47.524;12.404;2024-03-08T02:59:21;26.42;;;11.88;;
41881;SDS011;27562;47.524;12.404;2024-03-08T03:01:48;28.75;;;12.50;;
41881;SDS011;27562;47.524;12.404;2024-03-08T03:04:14;33.72;;;13.07;;
41881;SDS011;27562;47.524;12.404;2024-03-08T03:06:40;31.75;;;14.43;;
41881;SDS011;27562;47.524;12.404;2024-03-08T03:09:05;32.28;;;15.23;;
41881;SDS011;27562;47.524;12.404;2024-03-08T03:11:31;37.45;;;17.70;;
41881;SDS011;27562;47.524;12.404;2024-03-08T03:13:57;36.80;;;16.58;;
41881;SDS011;27562;47.524;12.404;2024-03-08T03:16:23;34.72;;;14.60;;
41881;SDS011;27562;47.524;12.404;2024-03-08T03:18:49;32.90;;;13.75;;
41881;SDS011;27562;47.524;12.404;2024-03-08T03:21:15;37.97;;;16.13;;
41881;SDS011;27562;47.524;12.404;2024-03-08T03:23:40;36.97;;;14.65;;
41881;SDS011;27562;47.524;12.404;2024-03-08T03:26:09;33.92;;;15.32;;
41881;SDS011;27562;47.524;12.404;2024-03-08T03:28:38;31.83;;;14.32;;
41881;SDS011;27562;47.524;12.404;2024-03-08T03:31:07;34.95;;;14.52;;
41881;SDS011;27562;47.524;12.404;2024-03-08T03:33:35;27.40;;;12.65;;
41881;SDS011;27562;47.524;12.404;2024-03-08T03:36:02;32.13;;;14.10;;
41881;SDS011;27562;47.524;12.404;2024-03-08T03:38:28;31.33;;;14.18;;
41881;SDS011;27562;47.524;12.404;2024-03-08T03:40:53;30.10;;;13.63;;
41881;SDS011;27562;47.524;12.404;2024-03-08T03:43:22;31.38;;;14.00;;
41881;SDS011;27562;47.524;12.404;2024-03-08T03:45:48;34.30;;;14.02;;
41881;SDS011;27562;47.524;12.404;2024-03-08T03:48:14;29.63;;;14.13;;
41881;SDS011;27562;47.524;12.404;2024-03-08T03:50:40;31.92;;;13.63;;
41881;SDS011;27562;47.524;12.404;2024-03-08T03:53:06;29.33;;;14.15;;
41881;SDS011;27562;47.524;12.404;2024-03-08T03:55:32;30.50;;;13.50;;
41881;SDS011;27562;47.524;12.404;2024-03-08T03:57:58;36.22;;;15.60;;
41881;SDS011;27562;47.524;12.404;2024-03-08T04:00:26;30.35;;;13.93;;
41881;SDS011;27562;47.524;12.404;2024-03-08T04:02:51;30.08;;;13.70;;
41881;SDS011;27562;47.524;12.404;2024-03-08T04:05:17;27.00;;;12.40;;
41881;SDS011;27562;47.524;12.404;2024-03-08T04:07:43;28.15;;;13.20;;
41881;SDS011;27562;47.524;12.404;2024-03-08T04:10:10;24.20;;;12.05;;
41881;SDS011;27562;47.524;12.404;2024-03-08T04:12:37;26.13;;;12.23;;
41881;SDS011;27562;47.524;12.404;2024-03-08T04:15:03;27.75;;;13.02;;
41881;SDS011;27562;47.524;12.404;2024-03-08T04:17:32;29.40;;;14.10;;
41881;SDS011;27562;47.524;12.404;2024-03-08T04:20:01;29.33;;;13.80;;
41881;SDS011;27562;47.524;12.404;2024-03-08T04:22:33;36.33;;;15.77;;
41881;SDS011;27562;47.524;12.404;2024-03-08T04:25:00;33.35;;;13.68;;
41881;SDS011;27562;47.524;12.404;2024-03-08T04:27:27;27.40;;;12.65;;
41881;SDS011;27562;47.524;12.404;2024-03-08T04:29:52;26.63;;;12.70;;
41881;SDS011;27562;47.524;12.404;2024-03-08T04:32:18;29.02;;;12.82;;
41881;SDS011;27562;47.524;12.404;2024-03-08T04:34:44;23.77;;;12.18;;
41881;SDS011;27562;47.524;12.404;2024-03-08T04:37:09;28.35;;;12.43;;
41881;SDS011;27562;47.524;12.404;2024-03-08T04:39:38;28.67;;;12.82;;
41881;SDS011;27562;47.524;12.404;2024-03-08T04:42:04;36.08;;;14.52;;
41881;SDS011;27562;47.524;12.404;2024-03-08T04:44:35;30.85;;;14.20;;
41881;SDS011;27562;47.524;12.404;2024-03-08T04:47:02;26.90;;;13.57;;
41881;SDS011;27562;47.524;12.404;2024-03-08T04:49:29;25.15;;;12.18;;
41881;SDS011;27562;47.524;12.404;2024-03-08T04:51:54;27.92;;;13.25;;
41881;SDS011;27562;47.524;12.404;2024-03-08T04:54:21;26.55;;;12.02;;
41881;SDS011;27562;47.524;12.404;2024-03-08T04:56:46;25.05;;;11.18;;
41881;SDS011;27562;47.524;12.404;2024-03-08T04:59:12;30.35;;;12.77;;
41881;SDS011;27562;47.524;12.404;2024-03-08T05:01:38;32.28;;;12.82;;
41881;SDS011;27562;47.524;12.404;2024-03-08T05:04:04;28.08;;;12.43;;
41881;SDS011;27562;47.524;12.404;2024-03-08T05:06:30;26.58;;;12.32;;
41881;SDS011;27562;47.524;12.404;2024-03-08T05:08:56;27.27;;;12.85;;
41881;SDS011;27562;47.524;12.404;2024-03-08T05:11:22;24.65;;;10.95;;
41881;SDS011;27562;47.524;12.404;2024-03-08T05:13:47;22.08;;;10.70;;
41881;SDS011;27562;47.524;12.404;2024-03-08T05:16:13;24.90;;;11.88;;
41881;SDS011;27562;47.524;12.404;2024-03-08T05:18:40;25.00;;;12.15;;
41881;SDS011;27562;47.524;12.404;2024-03-08T05:21:07;25.02;;;12.23;;
41881;SDS011;27562;47.524;12.404;2024-03-08T05:23:34;26.70;;;12.93;;
41881;SDS011;27562;47.524;12.404;2024-03-08T05:26:00;26.58;;;12.38;;
41881;SDS011;27562;47.524;12.404;2024-03-08T05:28:26;22.92;;;10.57;;
41881;SDS011;27562;47.524;12.404;2024-03-08T05:30:52;20.83;;;11.38;;
41881;SDS011;27562;47.524;12.404;2024-03-08T05:33:17;22.95;;;11.20;;
41881;SDS011;27562;47.524;12.404;2024-03-08T05:35:44;24.70;;;11.65;;
41881;SDS011;27562;47.524;12.404;2024-03-08T05:38:10;24.25;;;10.88;;
41881;SDS011;27562;47.524;12.404;2024-03-08T05:40:37;20.52;;;10.93;;
41881;SDS011;27562;47.524;12.404;2024-03-08T05:43:03;24.15;;;11.52;;
41881;SDS011;27562;47.524;12.404;2024-03-08T05:45:30;25.15;;;12.00;;
41881;SDS011;27562;47.524;12.404;2024-03-08T05:47:56;25.17;;;11.85;;
41881;SDS011;27562;47.524;12.404;2024-03-08T05:50:21;27.90;;;12.82;;
41881;SDS011;27562;47.524;12.404;2024-03-08T05:52:47;25.02;;;12.13;;
41881;SDS011;27562;47.524;12.404;2024-03-08T05:55:13;24.67;;;12.07;;
41881;SDS011;27562;47.524;12.404;2024-03-08T05:57:40;23.70;;;11.57;;
41881;SDS011;27562;47.524;12.404;2024-03-08T06:00:07;23.60;;;11.68;;
41881;SDS011;27562;47.524;12.404;2024-03-08T06:02:36;24.35;;;10.93;;
41881;SDS011;27562;47.524;12.404;2024-03-08T06:05:06;28.73;;;13.45;;
41881;SDS011;27562;47.524;12.404;2024-03-08T06:07:37;25.48;;;11.10;;
41881;SDS011;27562;47.524;12.404;2024-03-08T06:10:06;21.33;;;9.95;;
41881;SDS011;27562;47.524;12.404;2024-03-08T06:12:35;20.30;;;10.20;;
41881;SDS011;27562;47.524;12.404;2024-03-08T06:15:05;23.80;;;12.20;;
41881;SDS011;27562;47.524;12.404;2024-03-08T06:17:31;25.70;;;11.52;;
41881;SDS011;27562;47.524;12.404;2024-03-08T06:19:57;20.85;;;9.85;;
41881;SDS011;27562;47.524;12.404;2024-03-08T06:22:23;20.00;;;10.15;;
41881;SDS011;27562;47.524;12.404;2024-03-08T06:24:48;20.80;;;10.23;;
41881;SDS011;27562;47.524;12.404;2024-03-08T06:27:14;23.10;;;11.52;;
41881;SDS011;27562;47.524;12.404;2024-03-08T06:29:40;22.42;;;10.98;;
41881;SDS011;27562;47.524;12.404;2024-03-08T06:32:05;26.33;;;12.35;;
41881;SDS011;27562;47.524;12.404;2024-03-08T06:34:34;22.45;;;10.55;;
41881;SDS011;27562;47.524;12.404;2024-03-08T06:37:00;31.05;;;12.85;;
41881;SDS011;27562;47.524;12.404;2024-03-08T06:39:26;32.63;;;14.13;;
41881;SDS011;27562;47.524;12.404;2024-03-08T06:41:55;33.15;;;14.48;;
41881;SDS011;27562;47.524;12.404;2024-03-08T06:44:20;35.42;;;16.13;;
41881;SDS011;27562;47.524;12.404;2024-03-08T06:46:46;31.65;;;14.52;;
41881;SDS011;27562;47.524;12.404;2024-03-08T06:49:13;30.85;;;14.25;;
41881;SDS011;27562;47.524;12.404;2024-03-08T06:51:40;32.78;;;13.68;;
41881;SDS011;27562;47.524;12.404;2024-03-08T06:54:06;28.77;;;14.13;;
41881;SDS011;27562;47.524;12.404;2024-03-08T06:56:34;30.05;;;12.73;;
41881;SDS011;27562;47.524;12.404;2024-03-08T06:59:00;29.08;;;12.93;;
41881;SDS011;27562;47.524;12.404;2024-03-08T07:01:28;30.55;;;13.23;;
41881;SDS011;27562;47.524;12.404;2024-03-08T07:03:57;28.05;;;12.80;;
41881;SDS011;27562;47.524;12.404;2024-03-08T07:06:23;31.40;;;13.90;;
41881;SDS011;27562;47.524;12.404;2024-03-08T07:08:49;33.67;;;15.30;;
41881;SDS011;27562;47.524;12.404;2024-03-08T07:11:14;31.40;;;13.07;;
41881;SDS011;27562;47.524;12.404;2024-03-08T07:13:44;30.42;;;14.25;;
41881;SDS011;27562;47.524;12.404;2024-03-08T07:16:10;29.17;;;13.25;;
41881;SDS011;27562;47.524;12.404;2024-03-08T07:18:37;32.70;;;13.18;;
41881;SDS011;27562;47.524;12.404;2024-03-08T07:21:08;31.08;;;13.73;;
41881;SDS011;27562;47.524;12.404;2024-03-08T07:23:37;31.88;;;13.65;;
41881;SDS011;27562;47.524;12.404;2024-03-08T07:26:15;29.35;;;13.82;;
41881;SDS011;27562;47.524;12.404;2024-03-08T07:28:41;28.50;;;13.57;;
41881;SDS011;27562;47.524;12.404;2024-03-08T07:31:07;28.15;;;12.50;;
41881;SDS011;27562;47.524;12.404;2024-03-08T07:33:41;27.75;;;13.40;;
41881;SDS011;27562;47.524;12.404;2024-03-08T07:36:07;25.17;;;12.07;;
41881;SDS011;27562;47.524;12.404;2024-03-08T07:38:33;26.58;;;13.07;;
41881;SDS011;27562;47.524;12.404;2024-03-08T07:40:59;30.00;;;13.63;;
41881;SDS011;27562;47.524;12.404;2024-03-08T07:43:25;29.13;;;13.85;;
41881;SDS011;27562;47.524;12.404;2024-03-08T07:45:51;27.30;;;14.07;;
41881;SDS011;27562;47.524;12.404;2024-03-08T07:48:20;27.02;;;13.57;;
41881;SDS011;27562;47.524;12.404;2024-03-08T07:50:46;26.45;;;13.05;;
41881;SDS011;27562;47.524;12.404;2024-03-08T07:53:11;25.80;;;12.80;;
41881;SDS011;27562;47.524;12.404;2024-03-08T07:55:37;26.20;;;13.48;;
41881;SDS011;27562;47.524;12.404;2024-03-08T07:58:04;31.70;;;14.00;;
41881;SDS011;27562;47.524;12.404;2024-03-08T08:00:31;28.98;;;15.13;;
41881;SDS011;27562;47.524;12.404;2024-03-08T08:02:57;30.85;;;13.63;;
41881;SDS011;27562;47.524;12.404;2024-03-08T08:05:22;27.13;;;13.60;;
41881;SDS011;27562;47.524;12.404;2024-03-08T08:07:48;26.50;;;11.38;;
41881;SDS011;27562;47.524;12.404;2024-03-08T08:10:14;27.13;;;12.82;;
41881;SDS011;27562;47.524;12.404;2024-03-08T08:12:47;25.88;;;13.27;;
41881;SDS011;27562;47.524;12.404;2024-03-08T08:15:13;27.02;;;13.93;;
41881;SDS011;27562;47.524;12.404;2024-03-08T08:17:40;27.20;;;12.60;;
41881;SDS011;27562;47.524;12.404;2024-03-08T08:20:09;27.58;;;11.32;;
41881;SDS011;27562;47.524;12.404;2024-03-08T08:22:37;23.77;;;12.27;;
41881;SDS011;27562;47.524;12.404;2024-03-08T08:25:04;27.25;;;13.15;;
41881;SDS011;27562;47.524;12.404;2024-03-08T08:27:29;25.88;;;12.07;;
41881;SDS011;27562;47.524;12.404;2024-03-08T08:29:55;30.88;;;13.77;;
41881;SDS011;27562;47.524;12.404;2024-03-08T08:32:21;25.23;;;12.88;;
41881;SDS011;27562;47.524;12.404;2024-03-08T08:34:47;26.20;;;11.45;;
41881;SDS011;27562;47.524;12.404;2024-03-08T08:37:13;22.70;;;11.00;;
41881;SDS011;27562;47.524;12.404;2024-03-08T08:39:38;20.65;;;10.13;;
41881;SDS011;27562;47.524;12.404;2024-03-08T08:42:04;20.17;;;10.32;;
41881;SDS011;27562;47.524;12.404;2024-03-08T08:44:31;22.20;;;10.88;;
41881;SDS011;27562;47.524;12.404;2024-03-08T08:46:57;23.10;;;10.35;;
41881;SDS011;27562;47.524;12.404;2024-03-08T08:49:23;19.63;;;9.77;;
41881;SDS011;27562;47.524;12.404;2024-03-08T08:51:49;22.02;;;10.25;;
41881;SDS011;27562;47.524;12.404;2024-03-08T08:54:15;21.48;;;11.25;;
41881;SDS011;27562;47.524;12.404;2024-03-08T08:56:42;21.13;;;11.10;;
41881;SDS011;27562;47.524;12.404;2024-03-08T08:59:10;24.70;;;12.52;;
41881;SDS011;27562;47.524;12.404;2024-03-08T09:01:39;22.45;;;11.70;;
41881;SDS011;27562;47.524;12.404;2024-03-08T09:04:05;15.32;;;7.25;;
41881;SDS011;27562;47.524;12.404;2024-03-08T09:06:32;14.95;;;7.82;;
41881;SDS011;27562;47.524;12.404;2024-03-08T09:08:58;20.55;;;9.10;;
41881;SDS011;27562;47.524;12.404;2024-03-08T09:11:24;18.63;;;9.45;;
41881;SDS011;27562;47.524;12.404;2024-03-08T09:13:50;16.33;;;7.15;;
41881;SDS011;27562;47.524;12.404;2024-03-08T09:16:16;16.65;;;8.55;;
41881;SDS011;27562;47.524;12.404;2024-03-08T09:18:41;17.35;;;8.13;;
41881;SDS011;27562;47.524;12.404;2024-03-08T09:21:07;16.92;;;9.23;;
41881;SDS011;27562;47.524;12.404;2024-03-08T09:23:35;23.52;;;10.90;;
41881;SDS011;27562;47.524;12.404;2024-03-08T09:26:01;17.73;;;10.00;;
41881;SDS011;27562;47.524;12.404;2024-03-08T09:28:28;17.52;;;8.52;;
41881;SDS011;27562;47.524;12.404;2024-03-08T09:30:54;16.77;;;7.75;;
41881;SDS011;27562;47.524;12.404;2024-03-08T09:33:20;13.73;;;7.35;;
41881;SDS011;27562;47.524;12.404;2024-03-08T09:35:47;14.80;;;7.47;;
41881;SDS011;27562;47.524;12.404;2024-03-08T09:38:14;13.70;;;6.97;;
41881;SDS011;27562;47.524;12.404;2024-03-08T09:40:43;17.67;;;7.28;;
41881;SDS011;27562;47.524;12.404;2024-03-08T09:43:09;11.80;;;6.40;;
41881;SDS011;27562;47.524;12.404;2024-03-08T09:45:38;14.57;;;6.88;;
41881;SDS011;27562;47.524;12.404;2024-03-08T09:48:10;11.93;;;5.47;;
41881;SDS011;27562;47.524;12.404;2024-03-08T09:50:39;10.07;;;5.57;;
41881;SDS011;27562;47.524;12.404;2024-03-08T09:53:06;14.55;;;5.82;;
41881;SDS011;27562;47.524;12.404;2024-03-08T09:55:36;11.30;;;6.05;;
41881;SDS011;27562;47.524;12.404;2024-03-08T09:58:05;8.45;;;5.00;;
41881;SDS011;27562;47.524;12.404;2024-03-08T10:00:46;11.93;;;6.10;;
41881;SDS011;27562;47.524;12.404;2024-03-08T10:03:12;12.48;;;6.50;;
41881;SDS011;27562;47.524;12.404;2024-03-08T10:05:40;11.95;;;5.85;;
41881;SDS011;27562;47.524;12.404;2024-03-08T10:08:06;11.18;;;6.07;;
41881;SDS011;27562;47.524;12.404;2024-03-08T10:10:33;10.73;;;5.15;;
41881;SDS011;27562;47.524;12.404;2024-03-08T10:13:00;10.55;;;5.47;;
41881;SDS011;27562;47.524;12.404;2024-03-08T10:15:29;10.60;;;5.13;;
41881;SDS011;27562;47.524;12.404;2024-03-08T10:17:55;11.35;;;5.38;;
41881;SDS011;27562;47.524;12.404;2024-03-08T10:20:22;9.07;;;4.72;;
41881;SDS011;27562;47.524;12.404;2024-03-08T10:22:49;7.93;;;4.57;;
41881;SDS011;27562;47.524;12.404;2024-03-08T10:25:14;9.27;;;4.85;;
41881;SDS011;27562;47.524;12.404;2024-03-08T10:27:40;7.95;;;4.65;;
41881;SDS011;27562;47.524;12.404;2024-03-08T10:30:15;7.93;;;4.35;;
41881;SDS011;27562;47.524;12.404;2024-03-08T10:32:45;8.73;;;4.82;;
41881;SDS011;27562;47.524;12.404;2024-03-08T10:35:11;10.20;;;4.60;;
41881;SDS011;27562;47.524;12.404;2024-03-08T10:37:47;7.15;;;3.95;;
41881;SDS011;27562;47.524;12.404;2024-03-08T10:40:18;6.20;;;3.92;;
41881;SDS011;27562;47.524;12.404;2024-03-08T10:42:47;8.07;;;4.40;;
41881;SDS011;27562;47.524;12.404;2024-03-08T10:45:35;7.93;;;4.05;;
41881;SDS011;27562;47.524;12.404;2024-03-08T10:51:02;7.13;;;3.40;;
41881;SDS011;27562;47.524;12.404;2024-03-08T10:53:29;6.75;;;4.40;;
41881;SDS011;27562;47.524;12.404;2024-03-08T10:55:56;9.10;;;4.28;;
41881;SDS011;27562;47.524;12.404;2024-03-08T10:58:23;7.22;;;3.80;;
41881;SDS011;27562;47.524;12.404;2024-03-08T11:00:54;6.43;;;3.72;;
41881;SDS011;27562;47.524;12.404;2024-03-08T11:06:31;8.80;;;3.58;;
41881;SDS011;27562;47.524;12.404;2024-03-08T11:14:47;6.95;;;3.60;;
41881;SDS011;27562;47.524;12.404;2024-03-08T11:17:20;8.57;;;3.25;;
41881;SDS011;27562;47.524;12.404;2024-03-08T11:19:47;7.30;;;3.42;;
41881;SDS011;27562;47.524;12.404;2024-03-08T11:22:25;6.35;;;3.40;;
41881;SDS011;27562;47.524;12.404;2024-03-08T11:25:01;7.60;;;3.80;;
41881;SDS011;27562;47.524;12.404;2024-03-08T11:27:28;5.25;;;2.85;;
41881;SDS011;27562;47.524;12.404;2024-03-08T11:29:59;4.38;;;2.67;;
41881;SDS011;27562;47.524;12.404;2024-03-08T11:32:36;4.32;;;2.53;;
41881;SDS011;27562;47.524;12.404;2024-03-08T11:35:17;5.63;;;2.25;;
41881;SDS011;27562;47.524;12.404;2024-03-08T11:37:45;5.68;;;2.75;;
41881;SDS011;27562;47.524;12.404;2024-03-08T11:40:12;3.53;;;1.92;;
41881;SDS011;27562;47.524;12.404;2024-03-08T11:42:43;5.30;;;2.17;;
41881;SDS011;27562;47.524;12.404;2024-03-08T11:45:12;5.30;;;2.58;;
41881;SDS011;27562;47.524;12.404;2024-03-08T11:47:41;3.90;;;2.13;;
41881;SDS011;27562;47.524;12.404;2024-03-08T11:50:07;3.20;;;1.92;;
41881;SDS011;27562;47.524;12.404;2024-03-08T11:52:36;4.90;;;2.00;;
41881;SDS011;27562;47.524;12.404;2024-03-08T11:55:03;2.88;;;1.75;;
41881;SDS011;27562;47.524;12.404;2024-03-08T11:57:30;5.78;;;2.13;;
41881;SDS011;27562;47.524;12.404;2024-03-08T11:59:57;3.20;;;1.58;;
41881;SDS011;27562;47.524;12.404;2024-03-08T12:02:24;3.78;;;1.45;;
41881;SDS011;27562;47.524;12.404;2024-03-08T12:04:56;3.83;;;1.60;;
41881;SDS011;27562;47.524;12.404;2024-03-08T12:07:24;3.28;;;1.75;;
41881;SDS011;27562;47.524;12.404;2024-03-08T12:12:45;4.80;;;2.13;;
41881;SDS011;27562;47.524;12.404;2024-03-08T12:15:13;4.70;;;1.92;;
41881;SDS011;27562;47.524;12.404;2024-03-08T12:17:40;3.22;;;1.70;;
41881;SDS011;27562;47.524;12.404;2024-03-08T12:22:46;2.78;;;1.60;;
41881;SDS011;27562;47.524;12.404;2024-03-08T12:25:13;2.88;;;1.48;;
41881;SDS011;27562;47.524;12.404;2024-03-08T12:27:40;3.15;;;1.40;;
41881;SDS011;27562;47.524;12.404;2024-03-08T12:30:25;3.70;;;1.70;;
41881;SDS011;27562;47.524;12.404;2024-03-08T12:32:56;3.97;;;1.80;;
41881;SDS011;27562;47.524;12.404;2024-03-08T12:35:26;3.70;;;1.75;;
41881;SDS011;27562;47.524;12.404;2024-03-08T12:37:54;3.90;;;1.55;;
41881;SDS011;27562;47.524;12.404;2024-03-08T12:40:26;3.70;;;1.70;;
41881;SDS011;27562;47.524;12.404;2024-03-08T12:42:54;3.28;;;1.70;;
41881;SDS011;27562;47.524;12.404;2024-03-08T12:45:20;3.97;;;1.58;;
41881;SDS011;27562;47.524;12.404;2024-03-08T12:47:49;9.38;;;2.17;;
41881;SDS011;27562;47.524;12.404;2024-03-08T12:50:15;3.42;;;1.70;;
41881;SDS011;27562;47.524;12.404;2024-03-08T12:52:42;3.05;;;1.60;;
41881;SDS011;27562;47.524;12.404;2024-03-08T12:55:08;4.32;;;1.80;;
41881;SDS011;27562;47.524;12.404;2024-03-08T12:57:37;4.03;;;1.83;;
41881;SDS011;27562;47.524;12.404;2024-03-08T13:00:04;3.33;;;1.60;;
41881;SDS011;27562;47.524;12.404;2024-03-08T13:02:30;4.43;;;1.75;;
41881;SDS011;27562;47.524;12.404;2024-03-08T13:04:58;2.65;;;1.60;;
41881;SDS011;27562;47.524;12.404;2024-03-08T13:07:24;3.45;;;1.70;;
41881;SDS011;27562;47.524;12.404;2024-03-08T13:09:53;3.35;;;1.58;;
41881;SDS011;27562;47.524;12.404;2024-03-08T13:12:20;3.42;;;1.73;;
41881;SDS011;27562;47.524;12.404;2024-03-08T13:14:46;2.63;;;1.58;;
41881;SDS011;27562;47.524;12.404;2024-03-08T13:17:15;2.55;;;1.40;;
41881;SDS011;27562;47.524;12.404;2024-03-08T13:19:43;3.13;;;1.80;;
41881;SDS011;27562;47.524;12.404;2024-03-08T13:22:09;2.53;;;1.42;;
41881;SDS011;27562;47.524;12.404;2024-03-08T13:24:41;3.22;;;1.48;;
41881;SDS011;27562;47.524;12.404;2024-03-08T13:27:08;3.05;;;1.52;;
41881;SDS011;27562;47.524;12.404;2024-03-08T13:29:47;2.17;;;1.50;;
41881;SDS011;27562;47.524;12.404;2024-03-08T13:32:14;3.17;;;1.60;;
41881;SDS011;27562;47.524;12.404;2024-03-08T13:34:45;4.05;;;1.50;;
41881;SDS011;27562;47.524;12.404;2024-03-08T13:37:12;3.50;;;1.40;;
41881;SDS011;27562;47.524;12.404;2024-03-08T13:39:41;3.85;;;1.70;;
41881;SDS011;27562;47.524;12.404;2024-03-08T13:42:15;2.65;;;1.55;;
41881;SDS011;27562;47.524;12.404;2024-03-08T13:44:47;3.55;;;1.60;;
41881;SDS011;27562;47.524;12.404;2024-03-08T13:47:14;2.75;;;1.38;;
41881;SDS011;27562;47.524;12.404;2024-03-08T13:49:40;2.92;;;1.38;;
41881;SDS011;27562;47.524;12.404;2024-03-08T13:52:06;4.63;;;1.70;;
41881;SDS011;27562;47.524;12.404;2024-03-08T13:54:33;3.42;;;1.20;;
41881;SDS011;27562;47.524;12.404;2024-03-08T13:57:00;3.75;;;1.55;;
41881;SDS011;27562;47.524;12.404;2024-03-08T13:59:28;2.28;;;1.02;;
41881;SDS011;27562;47.524;12.404;2024-03-08T14:01:55;2.88;;;1.20;;
41881;SDS011;27562;47.524;12.404;2024-03-08T14:04:22;3.67;;;1.65;;
41881;SDS011;27562;47.524;12.404;2024-03-08T14:06:49;4.32;;;1.65;;
41881;SDS011;27562;47.524;12.404;2024-03-08T14:09:17;2.92;;;1.77;;
41881;SDS011;27562;47.524;12.404;2024-03-08T14:11:44;2.13;;;0.90;;
41881;SDS011;27562;47.524;12.404;2024-03-08T14:14:10;2.85;;;1.33;;
41881;SDS011;27562;47.524;12.404;2024-03-08T14:16:38;2.55;;;1.30;;
41881;SDS011;27562;47.524;12.404;2024-03-08T14:19:04;2.80;;;1.33;;
41881;SDS011;27562;47.524;12.404;2024-03-08T14:21:30;3.40;;;1.30;;
41881;SDS011;27562;47.524;12.404;2024-03-08T14:23:57;1.65;;;1.10;;
41881;SDS011;27562;47.524;12.404;2024-03-08T14:26:22;3.50;;;1.17;;
41881;SDS011;27562;47.524;12.404;2024-03-08T14:28:48;2.70;;;1.40;;
41881;SDS011;27562;47.524;12.404;2024-03-08T14:31:16;2.50;;;1.40;;
41881;SDS011;27562;47.524;12.404;2024-03-08T14:33:44;2.47;;;1.17;;